createdAt,value
2023-08-08T00:01:58.094Z,10.75
2023-08-08T00:04:24.881Z,10.65
2023-08-08T00:06:51.452Z,8.20
2023-08-08T00:09:18.085Z,8.63
2023-08-08T00:11:44.587Z,10.50
2023-08-08T00:14:11.101Z,11.70
2023-08-08T00:16:37.632Z,8.65
2023-08-08T00:19:04.443Z,8.82
2023-08-08T00:21:31.004Z,9.88
2023-08-08T00:23:57.465Z,11.73
2023-08-08T00:26:23.995Z,11.35
2023-08-08T00:28:50.490Z,8.40
2023-08-08T00:31:18.948Z,11.13
2023-08-08T00:33:45.569Z,10.48
2023-08-08T00:36:12.187Z,8.40
2023-08-08T00:38:38.808Z,7.15
2023-08-08T00:41:05.979Z,6.93
2023-08-08T00:43:32.531Z,8.20
2023-08-08T00:45:59.156Z,9.43
2023-08-08T00:48:26.367Z,7.38
2023-08-08T00:50:53.561Z,9.32
2023-08-08T00:53:24.291Z,10.05
2023-08-08T00:55:51.971Z,11.48
2023-08-08T00:58:18.887Z,8.53
2023-08-08T01:00:45.728Z,8.68
2023-08-08T01:03:12.637Z,8.73
2023-08-08T01:05:57.024Z,7.57
2023-08-08T01:08:32.966Z,8.63
2023-08-08T01:11:00.750Z,8.32
2023-08-08T01:13:28.984Z,9.82
2023-08-08T01:15:58.133Z,8.68
2023-08-08T01:18:25.639Z,8.05
2023-08-08T01:20:54.070Z,7.13
2023-08-08T01:25:52.270Z,8.20
2023-08-08T01:28:23.936Z,7.43
2023-08-08T01:30:51.339Z,8.77
2023-08-08T01:33:17.917Z,8.93
2023-08-08T01:35:57.558Z,9.07
2023-08-08T01:38:30.207Z,9.82
2023-08-08T01:40:58.794Z,9.20
2023-08-08T01:43:26.209Z,8.60
2023-08-08T01:45:53.659Z,10.20
2023-08-08T01:48:20.378Z,9.57
2023-08-08T01:50:46.881Z,12.57
2023-08-08T01:53:13.541Z,11.95
2023-08-08T01:55:40.133Z,8.45
2023-08-08T01:58:07.173Z,8.35
2023-08-08T02:00:33.727Z,10.73
2023-08-08T02:03:00.426Z,9.85
2023-08-08T02:05:26.996Z,5.88
2023-08-08T02:07:53.543Z,8.13
2023-08-08T02:10:20.096Z,9.70
2023-08-08T02:12:46.570Z,9.82
2023-08-08T02:15:13.058Z,9.15
2023-08-08T02:17:40.178Z,13.32
2023-08-08T02:20:08.165Z,10.10
2023-08-08T02:22:35.432Z,7.90
2023-08-08T02:25:02.028Z,10.10
2023-08-08T02:27:28.545Z,8.30
2023-08-08T02:29:55.018Z,8.68
2023-08-08T02:32:21.579Z,7.50
2023-08-08T02:34:48.088Z,13.05
2023-08-08T02:37:14.714Z,10.00
2023-08-08T02:39:42.182Z,12.27
2023-08-08T02:42:08.690Z,7.68
2023-08-08T02:44:35.202Z,8.20
2023-08-08T02:47:01.859Z,11.50
2023-08-08T02:49:28.362Z,9.77
2023-08-08T02:51:54.944Z,9.15
2023-08-08T02:54:21.373Z,11.27
2023-08-08T02:56:47.838Z,4.32
2023-08-08T02:59:14.323Z,11.93
2023-08-08T03:01:40.924Z,9.88
2023-08-08T03:04:07.546Z,6.10
2023-08-08T03:06:34.138Z,8.18
2023-08-08T03:09:00.613Z,7.78
2023-08-08T03:11:27.128Z,9.55
2023-08-08T03:13:53.587Z,8.40
2023-08-08T03:16:20.116Z,9.23
2023-08-08T03:18:46.721Z,8.63
2023-08-08T03:21:13.200Z,9.40
2023-08-08T03:23:39.964Z,11.30
2023-08-08T03:26:06.639Z,10.55
2023-08-08T03:28:33.127Z,12.13
2023-08-08T03:30:59.603Z,12.55
2023-08-08T03:33:26.078Z,9.00
2023-08-08T03:35:52.522Z,13.43
2023-08-08T03:38:18.976Z,12.73
2023-08-08T03:40:45.487Z,14.00
2023-08-08T03:43:12.231Z,12.90
2023-08-08T03:45:38.748Z,16.33
2023-08-08T03:48:05.633Z,11.13
2023-08-08T03:50:32.168Z,8.00
2023-08-08T03:52:59.186Z,11.75
2023-08-08T03:55:26.411Z,13.90
2023-08-08T03:57:53.027Z,15.30
2023-08-08T04:00:19.658Z,17.80
2023-08-08T04:02:46.279Z,11.43
2023-08-08T04:05:13.484Z,15.68
2023-08-08T04:07:40.208Z,13.38
2023-08-08T04:10:07.647Z,9.45
2023-08-08T04:12:34.152Z,13.02
2023-08-08T04:15:00.791Z,16.20
2023-08-08T04:17:27.317Z,11.45
2023-08-08T04:19:53.994Z,13.63
2023-08-08T04:22:20.560Z,11.52
2023-08-08T04:24:47.092Z,10.65
2023-08-08T04:27:13.651Z,16.30
2023-08-08T04:29:40.201Z,16.52
2023-08-08T04:32:06.994Z,14.50
2023-08-08T04:34:33.550Z,10.63
2023-08-08T04:37:00.033Z,17.90
2023-08-08T04:39:26.618Z,14.82
2023-08-08T04:41:53.142Z,21.17
2023-08-08T04:44:19.733Z,12.93
2023-08-08T04:46:46.242Z,13.82
2023-08-08T04:49:12.808Z,13.32
2023-08-08T04:51:39.393Z,14.95
2023-08-08T04:54:05.859Z,17.90
2023-08-08T04:56:32.405Z,15.95
2023-08-08T04:58:58.918Z,14.45
2023-08-08T05:01:25.480Z,16.70
2023-08-08T05:03:53.733Z,15.02
2023-08-08T05:06:21.816Z,15.52
2023-08-08T05:08:49.878Z,17.92
2023-08-08T05:11:16.475Z,17.05
2023-08-08T05:13:44.205Z,18.00
2023-08-08T05:16:10.778Z,16.63
2023-08-08T05:18:37.551Z,17.45
2023-08-08T05:21:04.192Z,14.23
2023-08-08T05:23:30.689Z,18.00
2023-08-08T05:25:57.231Z,14.82
2023-08-08T05:28:23.792Z,13.40
2023-08-08T05:30:50.487Z,16.75
2023-08-08T05:33:17.047Z,14.02
2023-08-08T05:35:43.538Z,19.77
2023-08-08T05:38:10.151Z,14.07
2023-08-08T05:40:39.478Z,16.90
2023-08-08T05:43:06.076Z,10.55
2023-08-08T05:45:33.014Z,15.55
2023-08-08T05:48:01.541Z,15.73
2023-08-08T05:50:29.219Z,16.58
2023-08-08T05:52:55.849Z,17.50
2023-08-08T05:55:22.407Z,18.98
2023-08-08T05:57:48.878Z,16.88
2023-08-08T06:00:16.373Z,16.02
2023-08-08T06:02:43.049Z,14.00
2023-08-08T06:05:10.195Z,16.27
2023-08-08T06:07:36.840Z,13.73
2023-08-08T06:10:03.753Z,12.45
2023-08-08T06:12:30.259Z,18.92
2023-08-08T06:14:56.754Z,13.57
2023-08-08T06:17:24.853Z,18.83
2023-08-08T06:19:51.640Z,12.80
2023-08-08T06:22:18.575Z,14.38
2023-08-08T06:24:45.836Z,12.02
2023-08-08T06:27:14.434Z,13.60
2023-08-08T06:29:40.871Z,11.15
2023-08-08T06:32:07.893Z,14.48
2023-08-08T06:34:34.592Z,13.77
2023-08-08T06:37:01.260Z,14.27
2023-08-08T06:39:28.300Z,11.15
2023-08-08T06:41:54.775Z,9.73
2023-08-08T06:44:22.579Z,14.50
2023-08-08T06:46:49.133Z,9.93
2023-08-08T06:49:15.538Z,10.88
2023-08-08T06:51:42.028Z,15.70
2023-08-08T06:54:09.056Z,16.90
2023-08-08T06:56:35.818Z,12.18
2023-08-08T06:59:02.331Z,11.18
2023-08-08T07:01:28.879Z,10.05
2023-08-08T07:03:55.536Z,12.52
2023-08-08T07:06:22.044Z,11.63
2023-08-08T07:08:48.559Z,8.68
2023-08-08T07:11:15.053Z,11.63
2023-08-08T07:13:41.879Z,6.85
2023-08-08T07:16:08.492Z,8.75
2023-08-08T07:18:35.543Z,9.25
2023-08-08T07:21:02.006Z,9.68
2023-08-08T07:23:28.487Z,10.15
2023-08-08T07:25:54.984Z,6.55
2023-08-08T07:28:21.563Z,9.73
2023-08-08T07:30:48.108Z,8.63
2023-08-08T07:33:15.039Z,9.95
2023-08-08T07:35:41.543Z,11.02
2023-08-08T07:38:08.172Z,5.85
2023-08-08T07:40:34.837Z,7.80
2023-08-08T07:43:01.460Z,4.20
2023-08-08T07:45:28.103Z,5.22
2023-08-08T07:47:54.724Z,6.75
2023-08-08T07:50:21.235Z,7.25
2023-08-08T07:52:47.748Z,3.30
2023-08-08T07:55:14.178Z,3.80
2023-08-08T07:57:40.725Z,7.70
2023-08-08T08:00:12.625Z,5.80
2023-08-08T08:02:44.038Z,3.65
2023-08-08T08:05:10.811Z,4.10
2023-08-08T08:07:38.946Z,6.18
2023-08-08T08:10:07.954Z,5.55
2023-08-08T08:12:34.460Z,3.08
2023-08-08T08:15:02.865Z,4.28
2023-08-08T08:19:56.072Z,4.05
2023-08-08T08:22:22.680Z,4.72
2023-08-08T08:24:49.211Z,2.00
2023-08-08T08:27:15.674Z,1.70
2023-08-08T08:29:42.438Z,7.30
2023-08-08T08:32:08.950Z,3.65
2023-08-08T08:34:35.471Z,4.30
2023-08-08T08:37:02.069Z,5.75
2023-08-08T08:39:28.802Z,4.97
2023-08-08T08:42:02.872Z,3.55
2023-08-08T08:44:32.341Z,3.70
2023-08-08T08:47:11.658Z,2.33
2023-08-08T08:49:39.697Z,2.08
2023-08-08T08:52:07.014Z,3.08
2023-08-08T08:54:36.423Z,3.67
2023-08-08T08:57:02.924Z,3.80
2023-08-08T08:59:29.421Z,2.47
2023-08-08T09:01:56.576Z,3.80
2023-08-08T09:04:23.923Z,2.08
2023-08-08T09:06:51.877Z,3.03
2023-08-08T09:09:18.919Z,1.45
2023-08-08T09:11:51.179Z,0.77
2023-08-08T09:14:22.464Z,3.85
2023-08-08T09:16:50.166Z,2.22
2023-08-08T09:19:19.075Z,4.07
2023-08-08T09:21:45.929Z,2.35
2023-08-08T09:24:12.658Z,1.98
2023-08-08T09:26:41.058Z,2.90
2023-08-08T09:31:36.221Z,0.82
2023-08-08T09:36:33.006Z,2.15
2023-08-08T09:39:00.968Z,0.40
2023-08-08T09:41:28.131Z,1.45
2023-08-08T09:43:54.879Z,1.42
2023-08-08T09:46:23.233Z,3.83
2023-08-08T09:51:17.669Z,0.85
2023-08-08T09:53:45.260Z,1.60
2023-08-08T09:56:13.560Z,1.40
2023-08-08T10:01:07.901Z,2.45
2023-08-08T10:03:35.815Z,3.63
2023-08-08T10:06:02.537Z,2.70
2023-08-08T10:08:30.304Z,2.17
2023-08-08T10:10:57.639Z,4.57
2023-08-08T10:13:26.049Z,3.40
2023-08-08T10:15:53.872Z,3.78
2023-08-08T10:18:23.338Z,4.47
2023-08-08T10:20:51.458Z,3.63
2023-08-08T10:23:19.195Z,3.45
2023-08-08T10:25:51.204Z,3.08
2023-08-08T10:28:26.962Z,2.63
2023-08-08T10:30:57.563Z,4.18
2023-08-08T10:33:25.801Z,1.80
2023-08-08T10:38:39.483Z,1.23
2023-08-08T10:41:06.162Z,5.97
2023-08-08T10:43:32.565Z,3.25
2023-08-08T10:46:13.004Z,2.15
2023-08-08T10:48:51.549Z,2.58
2023-08-08T10:51:18.303Z,2.90
2023-08-08T10:53:44.853Z,2.25
2023-08-08T10:56:14.708Z,1.92
2023-08-08T10:58:49.523Z,1.70
2023-08-08T11:01:18.003Z,1.58
2023-08-08T11:03:45.170Z,1.08
2023-08-08T11:06:12.144Z,1.67
2023-08-08T11:08:39.634Z,1.90
2023-08-08T11:11:07.359Z,1.67
2023-08-08T11:13:35.099Z,3.72
2023-08-08T11:16:04.573Z,1.60
2023-08-08T11:18:31.755Z,1.30
2023-08-08T11:21:12.805Z,2.57
2023-08-08T11:23:47.569Z,2.00
2023-08-08T11:28:51.368Z,2.22
2023-08-08T11:31:20.803Z,1.67
2023-08-08T11:33:48.995Z,0.77
2023-08-08T11:38:44.646Z,1.85
2023-08-08T11:41:18.655Z,4.68
2023-08-08T11:43:45.966Z,4.97
2023-08-08T11:46:16.401Z,2.63
2023-08-08T11:48:42.995Z,4.00
2023-08-08T11:51:11.043Z,2.58
2023-08-08T11:53:48.612Z,2.33
2023-08-08T11:56:15.127Z,1.95
2023-08-08T11:58:41.624Z,2.20
2023-08-08T12:01:09.489Z,3.85
2023-08-08T12:03:40.087Z,3.25
2023-08-08T12:06:14.123Z,1.73
2023-08-08T12:08:45.334Z,2.83
2023-08-08T12:11:13.723Z,3.90
2023-08-08T12:13:43.329Z,3.88
2023-08-08T12:16:17.839Z,2.08
2023-08-08T12:18:45.472Z,2.10
2023-08-08T12:21:11.990Z,2.45
2023-08-08T12:23:38.524Z,1.88
2023-08-08T12:26:08.569Z,1.98
2023-08-08T12:28:35.657Z,1.45
2023-08-08T12:31:02.588Z,5.45
2023-08-08T12:33:29.376Z,2.55
2023-08-08T12:35:55.954Z,2.72
2023-08-08T12:38:23.141Z,4.25
2023-08-08T12:40:49.629Z,2.15
2023-08-08T12:43:18.720Z,2.22
2023-08-08T12:45:46.433Z,3.63
2023-08-08T12:48:14.030Z,3.70
2023-08-08T12:50:41.711Z,2.95
2023-08-08T12:53:08.969Z,1.65
2023-08-08T12:55:35.756Z,2.13
2023-08-08T12:58:03.705Z,2.83
2023-08-08T13:00:31.003Z,4.40
2023-08-08T13:02:58.568Z,1.70
2023-08-08T13:05:26.028Z,1.85
2023-08-08T13:07:52.542Z,3.53
2023-08-08T13:10:21.170Z,1.98
2023-08-08T13:12:49.057Z,1.80
2023-08-08T13:15:15.693Z,2.67
2023-08-08T13:17:42.278Z,2.05
2023-08-08T13:20:10.135Z,2.10
2023-08-08T13:22:36.703Z,2.10
2023-08-08T13:25:03.397Z,3.28
2023-08-08T13:27:29.865Z,2.70
2023-08-08T13:29:56.309Z,3.15
2023-08-08T13:32:22.814Z,3.47
2023-08-08T13:34:49.944Z,3.08
2023-08-08T13:37:17.286Z,2.47
2023-08-08T13:39:43.804Z,2.33
2023-08-08T13:42:10.505Z,3.42
2023-08-08T13:44:37.112Z,2.03
2023-08-08T13:47:04.043Z,2.38
2023-08-08T13:49:30.563Z,2.45
2023-08-08T13:51:57.045Z,1.75
2023-08-08T13:54:28.817Z,2.25
2023-08-08T13:56:55.489Z,3.00
2023-08-08T13:59:22.085Z,3.50
2023-08-08T14:01:48.675Z,3.40
2023-08-08T14:04:15.250Z,1.73
2023-08-08T14:06:41.761Z,4.00
2023-08-08T14:09:10.463Z,3.13
2023-08-08T14:11:37.647Z,1.63
2023-08-08T14:14:04.356Z,2.42
2023-08-08T14:16:30.924Z,1.83
2023-08-08T14:18:57.496Z,3.22
2023-08-08T14:21:24.009Z,3.20
2023-08-08T14:23:50.621Z,3.40
2023-08-08T14:26:17.878Z,3.00
2023-08-08T14:28:44.326Z,4.30
2023-08-08T14:31:10.975Z,2.55
2023-08-08T14:33:37.543Z,2.47
2023-08-08T14:36:04.601Z,3.28
2023-08-08T14:38:35.936Z,3.05
2023-08-08T14:41:02.590Z,2.25
2023-08-08T14:43:29.214Z,1.92
2023-08-08T14:45:55.812Z,4.18
2023-08-08T14:48:22.405Z,3.40
2023-08-08T14:50:49.095Z,2.38
2023-08-08T14:53:15.944Z,2.92
2023-08-08T14:55:42.541Z,3.58
2023-08-08T14:58:09.632Z,1.67
2023-08-08T15:00:36.140Z,1.63
2023-08-08T15:03:02.774Z,3.78
2023-08-08T15:05:29.391Z,3.08
2023-08-08T15:07:57.176Z,2.60
2023-08-08T15:10:23.773Z,2.85
2023-08-08T15:12:50.385Z,3.80
2023-08-08T15:15:18.170Z,3.28
2023-08-08T15:17:44.783Z,3.55
2023-08-08T15:20:12.105Z,2.25
2023-08-08T15:22:38.691Z,5.07
2023-08-08T15:25:05.535Z,2.75
2023-08-08T15:27:32.003Z,4.43
2023-08-08T15:29:58.687Z,5.63
2023-08-08T15:32:25.254Z,4.18
2023-08-08T15:34:51.743Z,5.13
2023-08-08T15:37:18.297Z,3.03
2023-08-08T15:39:44.869Z,3.63
2023-08-08T15:42:11.437Z,4.47
2023-08-08T15:44:37.958Z,2.08
2023-08-08T15:47:05.013Z,2.00
2023-08-08T15:49:31.729Z,2.00
2023-08-08T15:51:58.307Z,2.90
2023-08-08T15:54:25.170Z,2.30
2023-08-08T15:56:52.675Z,3.90
2023-08-08T15:59:19.606Z,2.35
2023-08-08T16:01:46.155Z,3.13
2023-08-08T16:04:15.931Z,1.60
2023-08-08T16:06:42.602Z,5.40
2023-08-08T16:09:09.501Z,2.10
2023-08-08T16:11:36.016Z,4.82
2023-08-08T16:14:03.201Z,2.70
2023-08-08T16:16:29.790Z,4.57
2023-08-08T16:18:56.317Z,1.75
2023-08-08T16:21:22.885Z,4.10
2023-08-08T16:23:49.454Z,5.53
2023-08-08T16:26:16.419Z,2.80
2023-08-08T16:31:11.375Z,3.08
2023-08-08T16:33:37.986Z,4.13
2023-08-08T16:36:04.808Z,3.63
2023-08-08T16:38:31.460Z,3.65
2023-08-08T16:40:57.950Z,2.75
2023-08-08T16:43:24.683Z,4.88
2023-08-08T16:45:51.223Z,4.20
2023-08-08T16:48:17.798Z,5.63
2023-08-08T16:50:44.403Z,3.03
2023-08-08T16:53:10.975Z,3.03
2023-08-08T16:55:37.674Z,5.18
2023-08-08T16:58:04.351Z,2.55
2023-08-08T17:00:30.860Z,3.83
2023-08-08T17:02:57.682Z,3.28
2023-08-08T17:05:24.409Z,1.33
2023-08-08T17:07:51.564Z,3.55
2023-08-08T17:10:18.222Z,3.30
2023-08-08T17:12:44.848Z,3.50
2023-08-08T17:15:11.442Z,3.97
2023-08-08T17:17:37.982Z,3.28
2023-08-08T17:20:06.574Z,3.30
2023-08-08T17:22:33.726Z,4.75
2023-08-08T17:25:00.580Z,4.03
2023-08-08T17:27:27.340Z,3.42
2023-08-08T17:29:53.870Z,2.65
2023-08-08T17:32:20.540Z,4.38
2023-08-08T17:34:47.094Z,4.15
2023-08-08T17:37:13.603Z,4.00
2023-08-08T17:39:40.098Z,3.00
2023-08-08T17:42:06.667Z,2.38
2023-08-08T17:44:33.157Z,6.00
2023-08-08T17:46:59.953Z,4.63
2023-08-08T17:49:26.708Z,4.60
2023-08-08T17:51:53.227Z,6.47
2023-08-08T17:54:19.661Z,2.05
2023-08-08T17:56:46.226Z,2.80
2023-08-08T17:59:12.747Z,4.80
2023-08-08T18:01:39.903Z,5.22
2023-08-08T18:04:06.614Z,4.72
2023-08-08T18:06:33.525Z,6.97
2023-08-08T18:09:00.042Z,4.60
2023-08-08T18:11:26.721Z,3.13
2023-08-08T18:13:53.198Z,2.83
2023-08-08T18:16:19.657Z,4.50
2023-08-08T18:18:46.266Z,5.43
2023-08-08T18:21:12.939Z,4.15
2023-08-08T18:23:39.501Z,4.18
2023-08-08T18:26:06.085Z,4.75
2023-08-08T18:28:32.780Z,6.97
2023-08-08T18:30:59.342Z,4.80
2023-08-08T18:33:25.873Z,2.38
2023-08-08T18:35:52.397Z,4.63
2023-08-08T18:38:18.940Z,5.00
2023-08-08T18:40:45.495Z,5.05
2023-08-08T18:43:12.198Z,5.25
2023-08-08T18:45:38.968Z,5.32
2023-08-08T18:48:07.040Z,4.95
2023-08-08T18:50:33.589Z,5.15
2023-08-08T18:53:00.276Z,5.80
2023-08-08T18:55:26.820Z,6.22
2023-08-08T18:57:53.256Z,5.10
2023-08-08T19:00:19.705Z,4.00
2023-08-08T19:02:46.330Z,4.18
2023-08-08T19:05:12.882Z,4.35
2023-08-08T19:07:39.353Z,4.15
2023-08-08T19:10:06.470Z,6.53
2023-08-08T19:12:32.947Z,4.43
2023-08-08T19:14:59.456Z,6.05
2023-08-08T19:17:26.119Z,4.88
2023-08-08T19:19:52.613Z,5.78
2023-08-08T19:22:19.196Z,5.55
2023-08-08T19:24:45.720Z,6.22
2023-08-08T19:27:12.342Z,3.70
2023-08-08T19:29:38.951Z,4.63
2023-08-08T19:32:05.747Z,2.92
2023-08-08T19:34:32.394Z,4.75
2023-08-08T19:36:59.141Z,4.97
2023-08-08T19:39:25.788Z,3.70
2023-08-08T19:41:52.790Z,4.05
2023-08-08T19:44:19.685Z,3.28
2023-08-08T19:46:46.321Z,5.53
2023-08-08T19:49:12.851Z,5.43
2023-08-08T19:51:39.911Z,4.18
2023-08-08T19:54:06.646Z,4.20
2023-08-08T19:56:33.199Z,4.32
2023-08-08T19:58:59.875Z,4.93
2023-08-08T20:01:26.996Z,3.85
2023-08-08T20:03:53.841Z,7.28
2023-08-08T20:06:20.361Z,7.43
2023-08-08T20:08:48.688Z,3.10
2023-08-08T20:11:15.185Z,3.75
2023-08-08T20:13:41.600Z,2.72
2023-08-08T20:16:08.205Z,4.28
2023-08-08T20:18:34.788Z,4.30
2023-08-08T20:21:01.298Z,3.88
2023-08-08T20:23:27.843Z,2.97
2023-08-08T20:25:54.281Z,3.38
2023-08-08T20:28:20.820Z,3.55
2023-08-08T20:30:47.505Z,5.22
2023-08-08T20:33:14.166Z,5.80
2023-08-08T20:35:41.631Z,5.32
2023-08-08T20:38:08.322Z,5.25
2023-08-08T20:40:34.781Z,5.00
2023-08-08T20:43:01.269Z,4.05
2023-08-08T20:45:27.923Z,4.60
2023-08-08T20:47:54.504Z,10.00
2023-08-08T20:50:21.799Z,5.32
2023-08-08T20:52:49.694Z,4.97
2023-08-08T20:55:16.646Z,4.45
2023-08-08T20:57:43.223Z,5.97
2023-08-08T21:00:10.265Z,4.97
2023-08-08T21:05:21.423Z,5.80
2023-08-08T21:07:47.844Z,5.32
2023-08-08T21:10:14.260Z,5.00
2023-08-08T21:12:40.828Z,5.13
2023-08-08T21:15:08.025Z,5.63
2023-08-08T21:17:34.511Z,4.03
2023-08-08T21:20:02.164Z,5.78
2023-08-08T21:22:29.890Z,4.47
2023-08-08T21:24:56.330Z,6.32
2023-08-08T21:27:22.778Z,3.85
2023-08-08T21:29:49.249Z,3.75
2023-08-08T21:32:15.650Z,6.28
2023-08-08T21:34:42.235Z,7.03
2023-08-08T21:37:08.694Z,3.33
2023-08-08T21:39:35.351Z,3.05
2023-08-08T21:42:01.880Z,3.97
2023-08-08T21:44:28.394Z,2.50
2023-08-08T21:46:54.946Z,2.60
2023-08-08T21:49:21.434Z,3.42
2023-08-08T21:51:47.974Z,5.50
2023-08-08T21:54:14.506Z,2.85
2023-08-08T21:56:46.019Z,2.83
2023-08-08T21:59:12.890Z,2.88
2023-08-08T22:01:39.358Z,1.77
2023-08-08T22:04:07.152Z,2.58
2023-08-08T22:06:33.804Z,2.60
2023-08-08T22:09:00.279Z,3.55
2023-08-08T22:11:26.879Z,2.65
2023-08-08T22:13:53.366Z,2.85
2023-08-08T22:16:19.890Z,4.50
2023-08-08T22:18:46.605Z,3.25
2023-08-08T22:21:13.131Z,2.90
2023-08-08T22:23:39.612Z,3.65
2023-08-08T22:26:06.104Z,4.63
2023-08-08T22:28:32.576Z,5.40
2023-08-08T22:30:59.413Z,4.57
2023-08-08T22:33:25.931Z,3.08
2023-08-08T22:35:52.413Z,3.53
2023-08-08T22:38:18.919Z,3.08
2023-08-08T22:40:47.014Z,3.40
2023-08-08T22:43:14.427Z,3.25
2023-08-08T22:45:40.849Z,4.05
2023-08-08T22:48:07.788Z,4.18
2023-08-08T22:50:34.766Z,2.22
2023-08-08T22:53:01.382Z,4.25
2023-08-08T22:55:27.889Z,5.32
2023-08-08T22:57:54.356Z,3.95
2023-08-08T23:00:21.493Z,3.80
2023-08-08T23:02:48.679Z,5.00
2023-08-08T23:05:15.295Z,3.63
2023-08-08T23:07:41.697Z,3.90
2023-08-08T23:10:08.548Z,5.15
2023-08-08T23:12:34.998Z,5.55
2023-08-08T23:15:01.477Z,3.85
2023-08-08T23:17:28.044Z,4.40
2023-08-08T23:19:54.837Z,4.82
2023-08-08T23:22:21.394Z,4.35
2023-08-08T23:24:48.148Z,5.60
2023-08-08T23:27:16.239Z,4.47
2023-08-08T23:29:42.921Z,5.07
2023-08-08T23:32:09.435Z,5.10
2023-08-08T23:34:35.993Z,4.95
2023-08-08T23:37:02.698Z,4.57
2023-08-08T23:39:29.481Z,3.50
2023-08-08T23:41:56.217Z,5.32
2023-08-08T23:44:22.821Z,6.03
2023-08-08T23:46:49.460Z,4.05
2023-08-08T23:49:15.993Z,4.93
2023-08-08T23:51:44.389Z,3.97
2023-08-08T23:56:44.662Z,4.75
2023-08-08T23:59:11.229Z,4.13
